Chiang Mai, Thailand

8:15 AM ICT on August 23, 2014 (GMT +0700)
ThaiWx Station | Change Station
CLOSE
Current Station
Personal Weather Station
Location: Chiang Mai, Pa Daet
Elevation: 1007 ft
Nearby Weather Stations

Elev 1007 ft 18.77 °N, 98.97 °E | Updated 22 seconds ago

Scattered Clouds
Scattered Clouds
80.8 °F
Feels Like 86 °F
N
0.0
Wind Variable Wind from West
Gusts 0.0 mph

Today
High -- | Low -- °F
--% Chance of Precip.
Yesterday
High -- | Low -- °F
Precip. -- in
6:07 AM 6:46 PM
Waning Crescent, 6% visible
Pressure 29.95 in
Visibility 6.2 miles
Clouds Few 1800 ft
Scattered Clouds 3500 ft
Heat Index 86 °F
Dew Point 74 °F
Humidity 81%
Rainfall 0.00 in
Snow Depth Not available.
UV 3 out of 12
Pollen Not available.
Air Quality Not available.
Flu Activity Not available.
METAR VTCC 230100Z 18003KT 9999 FEW018 SCT035 26/22 Q1014 A2995 NOSIG

More Conditions Fewer Conditions

Pressure 29.95 in
Visibility 6.2 miles
Clouds Few 1800 ft
Scattered Clouds 3500 ft
Heat Index 86 °F
Dew Point 74 °F
Humidity 81%
Rainfall 0.00 in
Snow Depth Not available.
UV 3 out of 12
Pollen Not available.
Air Quality Not available.
Flu Activity Not available.
METAR VTCC 230100Z 18003KT 9999 FEW018 SCT035 26/22 Q1014 A2995 NOSIG

More Conditions Fewer Conditions

10-Day Weather Forecast

Almanac

Astronomy

Aug. 23, 2014 Rise Set
Actual Time 6:07 AM ICT 6:46 PM ICT
Civil Twilight 5:44 AM ICT 7:08 PM ICT
Nautical Twilight 5:18 AM ICT 7:34 PM ICT
Astronomical Twilight 4:51 AM ICT 8:01 PM ICT
Moon 4:03 AM ICT 5:06 PM ICT
Length of Visible Light 13h 23m
Length of Day
12h 38m
Tomorrow will be 1m 0s shorter.
Waning Crescent, 6% of the Moon is Illuminated
Aug 22
Waning Crescent
Aug 25
New
Sep 2
First Quarter
Sep 8
Full
Sep 15
Last Quarter

Yesterday's Extremes

Country Highs Country Lows

Community

WunderPhotos

Upload Photos

1,746,337 photos uploaded!

WunderBlogs® & News

Nearby

Snow Depth

Not available.

Earthquake Activity

City Distance Mag. Time & Date
No recent earthquake activity has been reported nearby.
Minimum magnitude displayed is 2.5.

Coastal Water Temperatures

Place Temperature
No Stations Reporting

Nearby Weather Stations